sensor_id;sensor_type;location;lat;lon;timestamp;P1;durP1;ratioP1;P2;durP2;ratioP2
58214;SDS011;44011;52.218;1.480;2022-09-23T00:01:52;5.13;;;3.60;;
58214;SDS011;44011;52.218;1.480;2022-09-23T00:04:18;5.55;;;3.53;;
58214;SDS011;44011;52.218;1.480;2022-09-23T00:06:43;6.00;;;3.50;;
58214;SDS011;44011;52.218;1.480;2022-09-23T00:09:09;4.53;;;3.20;;
58214;SDS011;44011;52.218;1.480;2022-09-23T00:11:35;3.75;;;3.42;;
58214;SDS011;44011;52.218;1.480;2022-09-23T00:14:00;6.93;;;3.83;;
58214;SDS011;44011;52.218;1.480;2022-09-23T00:16:27;6.72;;;4.03;;
58214;SDS011;44011;52.218;1.480;2022-09-23T00:18:54;6.30;;;3.85;;
58214;SDS011;44011;52.218;1.480;2022-09-23T00:21:20;5.15;;;3.75;;
58214;SDS011;44011;52.218;1.480;2022-09-23T00:23:46;6.75;;;4.00;;
58214;SDS011;44011;52.218;1.480;2022-09-23T00:26:13;7.38;;;3.92;;
58214;SDS011;44011;52.218;1.480;2022-09-23T00:28:40;7.88;;;3.83;;
58214;SDS011;44011;52.218;1.480;2022-09-23T00:31:14;4.03;;;3.55;;
58214;SDS011;44011;52.218;1.480;2022-09-23T00:33:53;4.32;;;3.72;;
58214;SDS011;44011;52.218;1.480;2022-09-23T00:36:22;6.80;;;3.90;;
58214;SDS011;44011;52.218;1.480;2022-09-23T00:38:48;6.40;;;3.88;;
58214;SDS011;44011;52.218;1.480;2022-09-23T00:41:13;4.80;;;3.85;;
58214;SDS011;44011;52.218;1.480;2022-09-23T00:43:41;5.70;;;3.80;;
58214;SDS011;44011;52.218;1.480;2022-09-23T00:46:44;4.22;;;3.72;;
58214;SDS011;44011;52.218;1.480;2022-09-23T00:51:52;6.82;;;4.15;;
58214;SDS011;44011;52.218;1.480;2022-09-23T00:54:20;5.07;;;3.85;;
58214;SDS011;44011;52.218;1.480;2022-09-23T00:56:46;6.55;;;4.05;;
58214;SDS011;44011;52.218;1.480;2022-09-23T00:59:12;5.43;;;3.90;;
58214;SDS011;44011;52.218;1.480;2022-09-23T01:01:37;5.30;;;3.55;;
58214;SDS011;44011;52.218;1.480;2022-09-23T01:04:03;6.05;;;4.13;;
58214;SDS011;44011;52.218;1.480;2022-09-23T01:06:29;5.18;;;3.10;;
58214;SDS011;44011;52.218;1.480;2022-09-23T01:08:55;3.67;;;3.25;;
58214;SDS011;44011;52.218;1.480;2022-09-23T01:11:28;6.97;;;3.70;;
58214;SDS011;44011;52.218;1.480;2022-09-23T01:14:01;5.97;;;3.75;;
58214;SDS011;44011;52.218;1.480;2022-09-23T01:43:59;6.47;;;3.42;;
58214;SDS011;44011;52.218;1.480;2022-09-23T01:46:31;5.38;;;4.43;;
58214;SDS011;44011;52.218;1.480;2022-09-23T01:51:33;7.18;;;4.72;;
58214;SDS011;44011;52.218;1.480;2022-09-23T01:54:07;7.88;;;5.43;;
58214;SDS011;44011;52.218;1.480;2022-09-23T01:56:41;7.93;;;4.85;;
58214;SDS011;44011;52.218;1.480;2022-09-23T01:59:24;9.18;;;6.32;;
58214;SDS011;44011;52.218;1.480;2022-09-23T02:02:05;11.55;;;5.90;;
58214;SDS011;44011;52.218;1.480;2022-09-23T02:05:15;8.30;;;5.13;;
58214;SDS011;44011;52.218;1.480;2022-09-23T02:07:49;7.45;;;5.40;;
58214;SDS011;44011;52.218;1.480;2022-09-23T02:10:17;6.43;;;5.47;;
58214;SDS011;44011;52.218;1.480;2022-09-23T02:12:48;7.72;;;5.40;;
58214;SDS011;44011;52.218;1.480;2022-09-23T02:15:16;10.15;;;5.70;;
58214;SDS011;44011;52.218;1.480;2022-09-23T02:18:03;8.52;;;5.00;;
58214;SDS011;44011;52.218;1.480;2022-09-23T02:20:33;11.05;;;5.82;;
58214;SDS011;44011;52.218;1.480;2022-09-23T02:23:10;9.27;;;5.88;;
58214;SDS011;44011;52.218;1.480;2022-09-23T02:28:37;6.10;;;5.15;;
58214;SDS011;44011;52.218;1.480;2022-09-23T02:31:11;7.82;;;5.50;;
58214;SDS011;44011;52.218;1.480;2022-09-23T02:36:25;8.27;;;5.18;;
58214;SDS011;44011;52.218;1.480;2022-09-23T02:38:56;8.77;;;6.10;;
58214;SDS011;44011;52.218;1.480;2022-09-23T02:41:29;6.85;;;5.07;;
58214;SDS011;44011;52.218;1.480;2022-09-23T02:44:00;10.95;;;6.13;;
58214;SDS011;44011;52.218;1.480;2022-09-23T02:46:26;7.82;;;6.18;;
58214;SDS011;44011;52.218;1.480;2022-09-23T02:49:36;8.20;;;5.95;;
58214;SDS011;44011;52.218;1.480;2022-09-23T02:51:47;10.20;;;6.35;;
58214;SDS011;44011;52.218;1.480;2022-09-23T02:54:13;10.23;;;7.53;;
58214;SDS011;44011;52.218;1.480;2022-09-23T02:56:42;7.22;;;5.75;;
58214;SDS011;44011;52.218;1.480;2022-09-23T02:59:08;10.10;;;7.25;;
58214;SDS011;44011;52.218;1.480;2022-09-23T03:10:38;9.27;;;6.75;;
58214;SDS011;44011;52.218;1.480;2022-09-23T03:16:19;8.55;;;6.28;;
58214;SDS011;44011;52.218;1.480;2022-09-23T03:22:04;11.13;;;6.78;;
58214;SDS011;44011;52.218;1.480;2022-09-23T03:24:32;12.25;;;6.97;;
58214;SDS011;44011;52.218;1.480;2022-09-23T03:27:00;10.18;;;6.60;;
58214;SDS011;44011;52.218;1.480;2022-09-23T03:29:28;8.52;;;6.45;;
58214;SDS011;44011;52.218;1.480;2022-09-23T03:31:54;9.90;;;6.63;;
58214;SDS011;44011;52.218;1.480;2022-09-23T03:34:26;9.18;;;6.53;;
58214;SDS011;44011;52.218;1.480;2022-09-23T03:37:05;14.75;;;9.02;;
58214;SDS011;44011;52.218;1.480;2022-09-23T03:42:06;9.82;;;7.50;;
58214;SDS011;44011;52.218;1.480;2022-09-23T03:44:47;12.23;;;7.78;;
58214;SDS011;44011;52.218;1.480;2022-09-23T03:47:13;12.88;;;7.75;;
58214;SDS011;44011;52.218;1.480;2022-09-23T03:49:41;9.23;;;6.40;;
58214;SDS011;44011;52.218;1.480;2022-09-23T03:52:09;9.48;;;6.35;;
58214;SDS011;44011;52.218;1.480;2022-09-23T03:54:35;13.15;;;7.50;;
58214;SDS011;44011;52.218;1.480;2022-09-23T03:57:00;12.95;;;6.93;;
58214;SDS011;44011;52.218;1.480;2022-09-23T03:59:27;11.18;;;7.53;;
58214;SDS011;44011;52.218;1.480;2022-09-23T04:01:54;11.23;;;8.25;;
58214;SDS011;44011;52.218;1.480;2022-09-23T04:04:20;12.30;;;9.15;;
58214;SDS011;44011;52.218;1.480;2022-09-23T04:06:45;11.95;;;8.85;;
58214;SDS011;44011;52.218;1.480;2022-09-23T04:09:11;13.65;;;8.27;;
58214;SDS011;44011;52.218;1.480;2022-09-23T04:11:36;11.15;;;8.75;;
58214;SDS011;44011;52.218;1.480;2022-09-23T04:14:03;12.00;;;8.27;;
58214;SDS011;44011;52.218;1.480;2022-09-23T04:16:28;11.63;;;8.32;;
58214;SDS011;44011;52.218;1.480;2022-09-23T04:18:54;10.95;;;8.38;;
58214;SDS011;44011;52.218;1.480;2022-09-23T04:21:19;14.20;;;9.60;;
58214;SDS011;44011;52.218;1.480;2022-09-23T04:23:45;12.23;;;8.95;;
58214;SDS011;44011;52.218;1.480;2022-09-23T04:26:11;10.95;;;8.82;;
58214;SDS011;44011;52.218;1.480;2022-09-23T04:28:38;12.07;;;9.57;;
58214;SDS011;44011;52.218;1.480;2022-09-23T04:31:04;15.02;;;9.30;;
58214;SDS011;44011;52.218;1.480;2022-09-23T04:33:33;13.10;;;9.02;;
58214;SDS011;44011;52.218;1.480;2022-09-23T04:35:59;11.60;;;8.98;;
58214;SDS011;44011;52.218;1.480;2022-09-23T04:38:24;12.13;;;9.05;;
58214;SDS011;44011;52.218;1.480;2022-09-23T04:40:50;13.23;;;9.27;;
58214;SDS011;44011;52.218;1.480;2022-09-23T04:43:16;11.98;;;8.45;;
58214;SDS011;44011;52.218;1.480;2022-09-23T04:45:42;15.10;;;9.95;;
58214;SDS011;44011;52.218;1.480;2022-09-23T04:48:08;15.95;;;9.07;;
58214;SDS011;44011;52.218;1.480;2022-09-23T04:50:34;15.45;;;10.38;;
58214;SDS011;44011;52.218;1.480;2022-09-23T04:53:00;15.70;;;11.60;;
58214;SDS011;44011;52.218;1.480;2022-09-23T04:55:27;16.33;;;10.73;;
58214;SDS011;44011;52.218;1.480;2022-09-23T04:57:52;16.05;;;11.85;;
58214;SDS011;44011;52.218;1.480;2022-09-23T05:00:18;17.40;;;10.50;;
58214;SDS011;44011;52.218;1.480;2022-09-23T05:02:44;12.98;;;9.98;;
58214;SDS011;44011;52.218;1.480;2022-09-23T05:05:11;18.48;;;11.32;;
58214;SDS011;44011;52.218;1.480;2022-09-23T05:07:37;20.10;;;13.57;;
58214;SDS011;44011;52.218;1.480;2022-09-23T05:10:03;16.02;;;11.48;;
58214;SDS011;44011;52.218;1.480;2022-09-23T05:12:29;17.73;;;12.15;;
58214;SDS011;44011;52.218;1.480;2022-09-23T05:14:54;18.55;;;12.55;;
58214;SDS011;44011;52.218;1.480;2022-09-23T05:17:20;17.65;;;12.10;;
58214;SDS011;44011;52.218;1.480;2022-09-23T05:19:46;15.82;;;12.10;;
58214;SDS011;44011;52.218;1.480;2022-09-23T05:22:11;18.40;;;13.10;;
58214;SDS011;44011;52.218;1.480;2022-09-23T05:24:37;19.48;;;13.07;;
58214;SDS011;44011;52.218;1.480;2022-09-23T05:27:03;25.15;;;13.07;;
58214;SDS011;44011;52.218;1.480;2022-09-23T05:29:31;18.40;;;12.75;;
58214;SDS011;44011;52.218;1.480;2022-09-23T05:31:56;16.92;;;12.80;;
58214;SDS011;44011;52.218;1.480;2022-09-23T05:34:21;19.25;;;12.95;;
58214;SDS011;44011;52.218;1.480;2022-09-23T05:36:48;19.10;;;13.50;;
58214;SDS011;44011;52.218;1.480;2022-09-23T05:39:14;23.42;;;14.38;;
58214;SDS011;44011;52.218;1.480;2022-09-23T05:41:39;19.75;;;14.13;;
58214;SDS011;44011;52.218;1.480;2022-09-23T05:44:07;20.17;;;13.43;;
58214;SDS011;44011;52.218;1.480;2022-09-23T05:46:32;19.40;;;14.23;;
58214;SDS011;44011;52.218;1.480;2022-09-23T05:48:59;19.42;;;13.80;;
58214;SDS011;44011;52.218;1.480;2022-09-23T05:51:25;26.15;;;16.10;;
58214;SDS011;44011;52.218;1.480;2022-09-23T05:53:52;23.05;;;15.57;;
58214;SDS011;44011;52.218;1.480;2022-09-23T05:56:22;23.83;;;15.73;;
58214;SDS011;44011;52.218;1.480;2022-09-23T05:58:49;32.20;;;16.50;;
58214;SDS011;44011;52.218;1.480;2022-09-23T06:01:16;24.45;;;16.60;;
58214;SDS011;44011;52.218;1.480;2022-09-23T06:03:48;26.33;;;17.45;;
58214;SDS011;44011;52.218;1.480;2022-09-23T06:06:14;27.02;;;17.45;;
58214;SDS011;44011;52.218;1.480;2022-09-23T06:08:47;30.42;;;18.33;;
58214;SDS011;44011;52.218;1.480;2022-09-23T06:11:12;28.83;;;18.05;;
58214;SDS011;44011;52.218;1.480;2022-09-23T06:13:38;28.90;;;18.20;;
58214;SDS011;44011;52.218;1.480;2022-09-23T06:16:05;29.23;;;17.95;;
58214;SDS011;44011;52.218;1.480;2022-09-23T06:18:38;28.65;;;19.35;;
58214;SDS011;44011;52.218;1.480;2022-09-23T06:21:08;27.92;;;19.27;;
58214;SDS011;44011;52.218;1.480;2022-09-23T06:23:34;26.98;;;18.42;;
58214;SDS011;44011;52.218;1.480;2022-09-23T06:26:00;29.85;;;18.52;;
58214;SDS011;44011;52.218;1.480;2022-09-23T06:28:30;28.42;;;18.95;;
58214;SDS011;44011;52.218;1.480;2022-09-23T06:31:00;26.02;;;17.00;;
58214;SDS011;44011;52.218;1.480;2022-09-23T06:33:30;26.48;;;18.52;;
58214;SDS011;44011;52.218;1.480;2022-09-23T06:35:56;28.52;;;18.17;;
58214;SDS011;44011;52.218;1.480;2022-09-23T06:38:23;26.98;;;18.75;;
58214;SDS011;44011;52.218;1.480;2022-09-23T06:40:49;28.85;;;19.48;;
58214;SDS011;44011;52.218;1.480;2022-09-23T06:43:15;32.72;;;19.67;;
58214;SDS011;44011;52.218;1.480;2022-09-23T06:45:41;29.90;;;20.35;;
58214;SDS011;44011;52.218;1.480;2022-09-23T06:48:06;29.70;;;19.10;;
58214;SDS011;44011;52.218;1.480;2022-09-23T06:50:32;31.15;;;20.05;;
58214;SDS011;44011;52.218;1.480;2022-09-23T06:52:57;29.17;;;19.98;;
58214;SDS011;44011;52.218;1.480;2022-09-23T06:55:23;31.98;;;19.92;;
58214;SDS011;44011;52.218;1.480;2022-09-23T06:57:51;28.45;;;20.15;;
58214;SDS011;44011;52.218;1.480;2022-09-23T07:00:17;32.85;;;20.48;;
58214;SDS011;44011;52.218;1.480;2022-09-23T07:02:43;35.90;;;21.13;;
58214;SDS011;44011;52.218;1.480;2022-09-23T07:05:09;33.88;;;20.95;;
58214;SDS011;44011;52.218;1.480;2022-09-23T07:07:34;30.67;;;20.90;;
58214;SDS011;44011;52.218;1.480;2022-09-23T07:10:01;34.50;;;20.30;;
58214;SDS011;44011;52.218;1.480;2022-09-23T07:12:28;32.20;;;20.63;;
58214;SDS011;44011;52.218;1.480;2022-09-23T07:14:54;29.85;;;19.27;;
58214;SDS011;44011;52.218;1.480;2022-09-23T07:17:21;39.35;;;20.73;;
58214;SDS011;44011;52.218;1.480;2022-09-23T07:19:48;29.95;;;20.40;;
58214;SDS011;44011;52.218;1.480;2022-09-23T07:22:14;33.85;;;20.67;;
58214;SDS011;44011;52.218;1.480;2022-09-23T07:24:39;35.25;;;21.25;;
58214;SDS011;44011;52.218;1.480;2022-09-23T07:27:04;31.58;;;20.95;;
58214;SDS011;44011;52.218;1.480;2022-09-23T07:29:30;33.03;;;20.35;;
58214;SDS011;44011;52.218;1.480;2022-09-23T07:31:55;32.30;;;21.17;;
58214;SDS011;44011;52.218;1.480;2022-09-23T07:34:21;31.80;;;20.30;;
58214;SDS011;44011;52.218;1.480;2022-09-23T07:36:46;34.05;;;20.95;;
58214;SDS011;44011;52.218;1.480;2022-09-23T07:39:12;28.45;;;18.90;;
58214;SDS011;44011;52.218;1.480;2022-09-23T07:41:37;31.27;;;20.30;;
58214;SDS011;44011;52.218;1.480;2022-09-23T07:44:03;35.42;;;21.33;;
58214;SDS011;44011;52.218;1.480;2022-09-23T07:46:31;29.92;;;20.38;;
58214;SDS011;44011;52.218;1.480;2022-09-23T07:48:58;31.42;;;19.88;;
58214;SDS011;44011;52.218;1.480;2022-09-23T07:51:25;32.42;;;20.58;;
58214;SDS011;44011;52.218;1.480;2022-09-23T07:53:52;30.00;;;18.48;;
58214;SDS011;44011;52.218;1.480;2022-09-23T07:56:19;30.17;;;18.55;;
58214;SDS011;44011;52.218;1.480;2022-09-23T07:58:46;31.20;;;19.83;;
58214;SDS011;44011;52.218;1.480;2022-09-23T08:04:00;26.85;;;17.65;;
58214;SDS011;44011;52.218;1.480;2022-09-23T08:06:29;30.45;;;17.85;;
58214;SDS011;44011;52.218;1.480;2022-09-23T08:08:56;28.38;;;16.98;;
58214;SDS011;44011;52.218;1.480;2022-09-23T08:11:22;32.53;;;17.65;;
58214;SDS011;44011;52.218;1.480;2022-09-23T08:13:49;31.13;;;18.98;;
58214;SDS011;44011;52.218;1.480;2022-09-23T08:16:14;33.42;;;19.95;;
58214;SDS011;44011;52.218;1.480;2022-09-23T08:18:42;27.65;;;18.02;;
58214;SDS011;44011;52.218;1.480;2022-09-23T08:21:09;29.67;;;19.00;;
58214;SDS011;44011;52.218;1.480;2022-09-23T08:23:34;34.88;;;19.52;;
58214;SDS011;44011;52.218;1.480;2022-09-23T08:26:01;32.45;;;18.90;;
58214;SDS011;44011;52.218;1.480;2022-09-23T08:28:27;32.35;;;20.65;;
58214;SDS011;44011;52.218;1.480;2022-09-23T08:30:53;30.80;;;19.15;;
58214;SDS011;44011;52.218;1.480;2022-09-23T08:33:19;35.90;;;19.75;;
58214;SDS011;44011;52.218;1.480;2022-09-23T08:35:45;30.40;;;19.50;;
58214;SDS011;44011;52.218;1.480;2022-09-23T08:38:10;33.20;;;19.90;;
58214;SDS011;44011;52.218;1.480;2022-09-23T08:40:38;31.38;;;19.08;;
58214;SDS011;44011;52.218;1.480;2022-09-23T08:43:13;30.20;;;18.52;;
58214;SDS011;44011;52.218;1.480;2022-09-23T08:45:43;36.13;;;20.15;;
58214;SDS011;44011;52.218;1.480;2022-09-23T08:48:10;33.08;;;19.02;;
58214;SDS011;44011;52.218;1.480;2022-09-23T08:50:47;30.80;;;18.95;;
58214;SDS011;44011;52.218;1.480;2022-09-23T08:53:26;31.75;;;18.77;;
58214;SDS011;44011;52.218;1.480;2022-09-23T08:55:57;41.15;;;19.25;;
58214;SDS011;44011;52.218;1.480;2022-09-23T09:01:06;36.10;;;19.63;;
58214;SDS011;44011;52.218;1.480;2022-09-23T09:08:59;35.28;;;19.55;;
58214;SDS011;44011;52.218;1.480;2022-09-23T09:11:28;34.17;;;18.92;;
58214;SDS011;44011;52.218;1.480;2022-09-23T09:14:21;29.67;;;17.38;;
58214;SDS011;44011;52.218;1.480;2022-09-23T09:17:04;34.47;;;18.17;;
58214;SDS011;44011;52.218;1.480;2022-09-23T09:22:21;33.78;;;17.58;;
58214;SDS011;44011;52.218;1.480;2022-09-23T09:24:54;32.78;;;17.05;;
58214;SDS011;44011;52.218;1.480;2022-09-23T09:27:21;30.55;;;17.35;;
58214;SDS011;44011;52.218;1.480;2022-09-23T09:29:48;36.97;;;18.20;;
58214;SDS011;44011;52.218;1.480;2022-09-23T09:32:37;27.98;;;15.50;;
58214;SDS011;44011;52.218;1.480;2022-09-23T09:35:55;33.10;;;16.60;;
58214;SDS011;44011;52.218;1.480;2022-09-23T09:38:02;32.13;;;16.25;;
58214;SDS011;44011;52.218;1.480;2022-09-23T09:40:30;33.17;;;18.20;;
58214;SDS011;44011;52.218;1.480;2022-09-23T09:42:55;29.10;;;16.27;;
58214;SDS011;44011;52.218;1.480;2022-09-23T09:48:27;30.50;;;16.67;;
58214;SDS011;44011;52.218;1.480;2022-09-23T09:50:57;32.47;;;16.75;;
58214;SDS011;44011;52.218;1.480;2022-09-23T09:53:42;27.67;;;15.18;;
58214;SDS011;44011;52.218;1.480;2022-09-23T09:56:08;27.65;;;15.43;;
58214;SDS011;44011;52.218;1.480;2022-09-23T10:01:17;24.58;;;13.40;;
58214;SDS011;44011;52.218;1.480;2022-09-23T10:03:42;22.98;;;14.10;;
58214;SDS011;44011;52.218;1.480;2022-09-23T10:06:13;20.50;;;12.23;;
58214;SDS011;44011;52.218;1.480;2022-09-23T10:09:07;19.10;;;11.63;;
58214;SDS011;44011;52.218;1.480;2022-09-23T10:14:48;16.48;;;10.32;;
58214;SDS011;44011;52.218;1.480;2022-09-23T10:17:32;16.27;;;10.30;;
58214;SDS011;44011;52.218;1.480;2022-09-23T10:20:02;19.40;;;12.48;;
58214;SDS011;44011;52.218;1.480;2022-09-23T10:22:32;21.10;;;12.10;;
58214;SDS011;44011;52.218;1.480;2022-09-23T10:25:02;18.83;;;11.00;;
58214;SDS011;44011;52.218;1.480;2022-09-23T10:27:33;23.70;;;13.65;;
58214;SDS011;44011;52.218;1.480;2022-09-23T10:30:00;23.23;;;13.85;;
58214;SDS011;44011;52.218;1.480;2022-09-23T10:37:25;37.33;;;21.75;;
58214;SDS011;44011;52.218;1.480;2022-09-23T10:39:54;35.83;;;21.92;;
58214;SDS011;44011;52.218;1.480;2022-09-23T10:45:58;31.90;;;19.40;;
58214;SDS011;44011;52.218;1.480;2022-09-23T11:00:00;35.38;;;19.45;;
58214;SDS011;44011;52.218;1.480;2022-09-23T11:10:47;30.40;;;18.02;;
58214;SDS011;44011;52.218;1.480;2022-09-23T11:19:07;28.05;;;16.73;;
58214;SDS011;44011;52.218;1.480;2022-09-23T11:21:49;27.42;;;17.40;;
58214;SDS011;44011;52.218;1.480;2022-09-23T11:29:39;27.75;;;17.77;;
58214;SDS011;44011;52.218;1.480;2022-09-23T11:32:40;29.55;;;17.13;;
58214;SDS011;44011;52.218;1.480;2022-09-23T11:41:00;28.23;;;15.73;;
58214;SDS011;44011;52.218;1.480;2022-09-23T11:43:33;21.92;;;14.38;;
58214;SDS011;44011;52.218;1.480;2022-09-23T11:48:54;20.20;;;12.95;;
58214;SDS011;44011;52.218;1.480;2022-09-23T11:51:23;19.80;;;12.52;;
58214;SDS011;44011;52.218;1.480;2022-09-23T11:56:44;19.67;;;11.48;;
58214;SDS011;44011;52.218;1.480;2022-09-23T12:01:47;17.38;;;10.52;;
58214;SDS011;44011;52.218;1.480;2022-09-23T12:09:55;13.15;;;9.40;;
58214;SDS011;44011;52.218;1.480;2022-09-23T12:20:49;15.82;;;11.48;;
58214;SDS011;44011;52.218;1.480;2022-09-23T12:23:33;15.37;;;10.90;;
58214;SDS011;44011;52.218;1.480;2022-09-23T12:26:22;16.10;;;10.73;;
58214;SDS011;44011;52.218;1.480;2022-09-23T12:28:49;18.08;;;11.95;;
58214;SDS011;44011;52.218;1.480;2022-09-23T12:31:24;14.00;;;10.05;;
58214;SDS011;44011;52.218;1.480;2022-09-23T12:33:57;15.80;;;10.95;;
58214;SDS011;44011;52.218;1.480;2022-09-23T12:36:33;13.73;;;9.65;;
58214;SDS011;44011;52.218;1.480;2022-09-23T12:41:35;10.50;;;8.23;;
58214;SDS011;44011;52.218;1.480;2022-09-23T12:46:35;9.18;;;6.53;;
58214;SDS011;44011;52.218;1.480;2022-09-23T12:49:01;7.63;;;5.90;;
58214;SDS011;44011;52.218;1.480;2022-09-23T12:51:29;5.68;;;4.43;;
58214;SDS011;44011;52.218;1.480;2022-09-23T12:53:56;3.80;;;3.45;;
58214;SDS011;44011;52.218;1.480;2022-09-23T12:56:23;4.32;;;3.33;;
58214;SDS011;44011;52.218;1.480;2022-09-23T12:58:58;4.13;;;3.72;;
58214;SDS011;44011;52.218;1.480;2022-09-23T13:01:24;3.90;;;3.50;;
58214;SDS011;44011;52.218;1.480;2022-09-23T13:06:40;2.85;;;2.50;;
58214;SDS011;44011;52.218;1.480;2022-09-23T13:09:12;3.88;;;3.33;;
58214;SDS011;44011;52.218;1.480;2022-09-23T13:11:41;5.13;;;3.45;;
58214;SDS011;44011;52.218;1.480;2022-09-23T13:14:08;3.97;;;3.13;;
58214;SDS011;44011;52.218;1.480;2022-09-23T13:16:41;4.38;;;2.90;;
58214;SDS011;44011;52.218;1.480;2022-09-23T13:22:00;2.83;;;2.40;;
58214;SDS011;44011;52.218;1.480;2022-09-23T13:24:35;3.35;;;2.70;;
58214;SDS011;44011;52.218;1.480;2022-09-23T13:27:12;3.40;;;2.85;;
58214;SDS011;44011;52.218;1.480;2022-09-23T13:29:55;3.80;;;3.13;;
58214;SDS011;44011;52.218;1.480;2022-09-23T13:32:58;3.10;;;2.80;;
58214;SDS011;44011;52.218;1.480;2022-09-23T13:35:28;4.10;;;2.75;;
58214;SDS011;44011;52.218;1.480;2022-09-23T13:37:58;4.43;;;3.15;;
58214;SDS011;44011;52.218;1.480;2022-09-23T13:40:24;3.55;;;3.22;;
58214;SDS011;44011;52.218;1.480;2022-09-23T13:45:24;3.63;;;3.28;;
58214;SDS011;44011;52.218;1.480;2022-09-23T13:47:52;3.88;;;3.45;;
58214;SDS011;44011;52.218;1.480;2022-09-23T13:50:20;4.68;;;3.78;;
58214;SDS011;44011;52.218;1.480;2022-09-23T13:52:56;3.65;;;3.35;;
58214;SDS011;44011;52.218;1.480;2022-09-23T13:55:25;4.63;;;3.55;;
58214;SDS011;44011;52.218;1.480;2022-09-23T13:57:58;4.95;;;3.80;;
58214;SDS011;44011;52.218;1.480;2022-09-23T14:00:29;7.53;;;4.05;;
58214;SDS011;44011;52.218;1.480;2022-09-23T14:02:56;4.10;;;3.60;;
58214;SDS011;44011;52.218;1.480;2022-09-23T14:05:23;4.53;;;3.83;;
58214;SDS011;44011;52.218;1.480;2022-09-23T14:07:50;4.90;;;4.20;;
58214;SDS011;44011;52.218;1.480;2022-09-23T14:10:18;4.07;;;3.75;;
58214;SDS011;44011;52.218;1.480;2022-09-23T14:12:45;4.28;;;3.58;;
58214;SDS011;44011;52.218;1.480;2022-09-23T14:15:16;4.55;;;3.20;;
58214;SDS011;44011;52.218;1.480;2022-09-23T14:17:53;2.20;;;1.83;;
58214;SDS011;44011;52.218;1.480;2022-09-23T14:20:25;2.47;;;1.60;;
58214;SDS011;44011;52.218;1.480;2022-09-23T14:23:04;3.38;;;1.67;;
58214;SDS011;44011;52.218;1.480;2022-09-23T14:25:30;4.03;;;1.50;;
58214;SDS011;44011;52.218;1.480;2022-09-23T14:27:56;2.50;;;1.30;;
58214;SDS011;44011;52.218;1.480;2022-09-23T14:30:22;3.50;;;1.35;;
58214;SDS011;44011;52.218;1.480;2022-09-23T14:32:48;5.05;;;1.63;;
58214;SDS011;44011;52.218;1.480;2022-09-23T14:35:18;2.95;;;1.27;;
58214;SDS011;44011;52.218;1.480;2022-09-23T14:37:46;5.70;;;1.65;;
58214;SDS011;44011;52.218;1.480;2022-09-23T14:40:52;3.33;;;1.48;;
58214;SDS011;44011;52.218;1.480;2022-09-23T14:43:39;2.45;;;1.40;;
58214;SDS011;44011;52.218;1.480;2022-09-23T14:46:04;5.97;;;1.73;;
58214;SDS011;44011;52.218;1.480;2022-09-23T14:48:33;1.63;;;1.30;;
58214;SDS011;44011;52.218;1.480;2022-09-23T14:51:00;2.72;;;1.50;;
58214;SDS011;44011;52.218;1.480;2022-09-23T14:58:39;4.03;;;1.30;;
58214;SDS011;44011;52.218;1.480;2022-09-23T15:01:22;4.93;;;1.70;;
58214;SDS011;44011;52.218;1.480;2022-09-23T15:03:48;3.70;;;1.50;;
58214;SDS011;44011;52.218;1.480;2022-09-23T15:06:14;7.63;;;2.17;;
58214;SDS011;44011;52.218;1.480;2022-09-23T15:08:40;2.75;;;1.60;;
58214;SDS011;44011;52.218;1.480;2022-09-23T15:11:08;3.55;;;1.45;;
58214;SDS011;44011;52.218;1.480;2022-09-23T15:13:38;4.15;;;1.40;;
58214;SDS011;44011;52.218;1.480;2022-09-23T15:16:05;6.07;;;1.35;;
58214;SDS011;44011;52.218;1.480;2022-09-23T15:18:31;3.33;;;1.40;;
58214;SDS011;44011;52.218;1.480;2022-09-23T15:21:02;2.22;;;1.42;;
58214;SDS011;44011;52.218;1.480;2022-09-23T15:23:51;6.15;;;1.63;;
58214;SDS011;44011;52.218;1.480;2022-09-23T15:26:22;4.40;;;1.27;;
58214;SDS011;44011;52.218;1.480;2022-09-23T15:28:48;2.05;;;1.25;;
58214;SDS011;44011;52.218;1.480;2022-09-23T15:31:17;4.75;;;1.25;;
58214;SDS011;44011;52.218;1.480;2022-09-23T15:33:44;5.53;;;1.42;;
58214;SDS011;44011;52.218;1.480;2022-09-23T15:36:15;8.32;;;1.35;;
58214;SDS011;44011;52.218;1.480;2022-09-23T15:38:42;2.97;;;1.52;;
58214;SDS011;44011;52.218;1.480;2022-09-23T15:41:08;4.32;;;1.38;;
58214;SDS011;44011;52.218;1.480;2022-09-23T15:43:33;7.07;;;1.45;;
58214;SDS011;44011;52.218;1.480;2022-09-23T15:46:03;6.38;;;1.33;;
58214;SDS011;44011;52.218;1.480;2022-09-23T15:48:32;6.57;;;1.73;;
58214;SDS011;44011;52.218;1.480;2022-09-23T15:51:03;6.07;;;1.48;;
58214;SDS011;44011;52.218;1.480;2022-09-23T15:53:31;3.20;;;1.40;;
58214;SDS011;44011;52.218;1.480;2022-09-23T15:55:57;6.22;;;1.48;;
58214;SDS011;44011;52.218;1.480;2022-09-23T15:58:22;4.28;;;1.10;;
58214;SDS011;44011;52.218;1.480;2022-09-23T16:00:50;2.83;;;1.40;;
58214;SDS011;44011;52.218;1.480;2022-09-23T16:03:18;4.60;;;1.60;;
58214;SDS011;44011;52.218;1.480;2022-09-23T16:05:46;5.53;;;1.33;;
58214;SDS011;44011;52.218;1.480;2022-09-23T16:08:12;2.17;;;1.30;;
58214;SDS011;44011;52.218;1.480;2022-09-23T16:10:38;6.35;;;1.30;;
58214;SDS011;44011;52.218;1.480;2022-09-23T16:13:05;7.15;;;1.50;;
58214;SDS011;44011;52.218;1.480;2022-09-23T16:15:33;2.58;;;1.13;;
58214;SDS011;44011;52.218;1.480;2022-09-23T16:17:59;3.42;;;1.20;;
58214;SDS011;44011;52.218;1.480;2022-09-23T16:20:26;3.58;;;1.50;;
58214;SDS011;44011;52.218;1.480;2022-09-23T16:22:57;2.92;;;1.10;;
58214;SDS011;44011;52.218;1.480;2022-09-23T16:25:25;2.17;;;1.08;;
58214;SDS011;44011;52.218;1.480;2022-09-23T16:27:52;6.57;;;1.40;;
58214;SDS011;44011;52.218;1.480;2022-09-23T16:30:23;7.72;;;1.75;;
58214;SDS011;44011;52.218;1.480;2022-09-23T16:32:50;4.63;;;1.17;;
58214;SDS011;44011;52.218;1.480;2022-09-23T16:35:18;6.03;;;1.55;;
58214;SDS011;44011;52.218;1.480;2022-09-23T16:37:48;3.05;;;1.27;;
58214;SDS011;44011;52.218;1.480;2022-09-23T16:40:15;3.83;;;1.17;;
58214;SDS011;44011;52.218;1.480;2022-09-23T16:42:45;6.45;;;1.52;;
58214;SDS011;44011;52.218;1.480;2022-09-23T16:45:15;6.15;;;0.93;;
58214;SDS011;44011;52.218;1.480;2022-09-23T16:47:45;4.32;;;1.25;;
58214;SDS011;44011;52.218;1.480;2022-09-23T16:50:13;2.47;;;1.20;;
58214;SDS011;44011;52.218;1.480;2022-09-23T16:52:40;3.35;;;1.40;;
58214;SDS011;44011;52.218;1.480;2022-09-23T16:55:06;3.35;;;1.10;;
58214;SDS011;44011;52.218;1.480;2022-09-23T16:57:35;3.67;;;1.73;;
58214;SDS011;44011;52.218;1.480;2022-09-23T17:00:03;4.00;;;1.83;;
58214;SDS011;44011;52.218;1.480;2022-09-23T17:02:48;3.65;;;1.23;;
58214;SDS011;44011;52.218;1.480;2022-09-23T17:05:32;4.03;;;1.20;;
58214;SDS011;44011;52.218;1.480;2022-09-23T17:07:57;2.20;;;1.15;;
58214;SDS011;44011;52.218;1.480;2022-09-23T17:10:24;6.82;;;1.67;;
58214;SDS011;44011;52.218;1.480;2022-09-23T17:12:50;2.88;;;1.02;;
58214;SDS011;44011;52.218;1.480;2022-09-23T17:15:18;5.82;;;1.50;;
58214;SDS011;44011;52.218;1.480;2022-09-23T17:17:46;3.47;;;1.05;;
58214;SDS011;44011;52.218;1.480;2022-09-23T17:20:11;3.70;;;1.27;;
58214;SDS011;44011;52.218;1.480;2022-09-23T17:22:38;5.85;;;1.05;;
58214;SDS011;44011;52.218;1.480;2022-09-23T17:25:04;4.70;;;1.00;;
58214;SDS011;44011;52.218;1.480;2022-09-23T17:27:30;5.57;;;1.25;;
58214;SDS011;44011;52.218;1.480;2022-09-23T17:29:56;2.35;;;1.33;;
58214;SDS011;44011;52.218;1.480;2022-09-23T17:32:23;5.10;;;1.10;;
58214;SDS011;44011;52.218;1.480;2022-09-23T17:34:48;4.88;;;1.05;;